Saint Francis River (Missouri), Wappapello (07039500)

StateMissouriLatestGood (846 cfs)
RiverSaint Francis RiverRatingObservedEstimated
Updated2020-08-14 6:00 (46 minutes ago)Flood - The river is flooding. Obstacles can be treacherous or deadly. The river should be avoided at this stage for casual trips and definitely for the inexperienced. Trips should be attempted only with protective gear and equipment.Flood(none)7958
Discharge846 cfs (median: 230 cfs)High - The river is high and potentially dangerous, especially for the young and / or inexperienced. Normal stream obstacles are sometimes difficult to navigate. Extended distances can be attempted, but canoe travel may not be advisable.High(none)2240
Height8.61 feetGood - Conditions are ideal for a canoe or kayak. Boats typically will drag on fewer than one-quarter of riffles, if at all, and portages are unnecessary or rare. Normal float lengths can be attempted without a problem.Good(none)676
TrendFalling (falling over 24 hours)Low - River is low but can still be floated. Some riffles are okay but most come with significant dragging and might need a portage. Float lengths should be reduced to accommodate low flow, dragging, and portages.Low(none)255
USGSExternal icon USGS Site (External icon Google Maps)Poor - River is too low to float comfortably. Most or all riffles will drag or must be portaged and some obstacles (such as slick shelf rock) cause undue problems. Avoid the river at this stage for casual paddling trips.Poor(none)40

Trending Data

Plot Image

Trips for Saint Francis River (Missouri), Wappapello (07039500)

DateStartEndDistanceConditionDischargeHeightFishingDetails

A total of 0 rows are displayed.

Condition Descriptions

Fishing Conditions

Fish Species

Notes

Classic Trip List

The classic River Trips application is still available for use. It is updated with the new system using a data retrofit. It is no longer maintained. The original River Trips application is no longer updated (as of 1 Dec 2016) but can be checked for errors or for the condition of the data before it was converted to the new system.

Gauge Data Table

ObservationHeightDischargeMaximum
Discharge
Minimum
Discharge
Mean
Discharge
P05P10P20P25P50
(Median)
P75P80P90P95
2020-08-14 06:00 8.61 846 3990 (1945) 30 (1947) 452 37 40 76 81 230 535 658 1130 1800
2020-08-14 05:00 8.62 848 3990 (1945) 30 (1947) 452 37 40 76 81 230 535 658 1130 1800
2020-08-14 04:00 8.61 846 3990 (1945) 30 (1947) 452 37 40 76 81 230 535 658 1130 1800
2020-08-14 03:00 8.61 846 3990 (1945) 30 (1947) 452 37 40 76 81 230 535 658 1130 1800
2020-08-14 02:00 8.62 848 3990 (1945) 30 (1947) 452 37 40 76 81 230 535 658 1130 1800
2020-08-14 01:00 8.61 846 3990 (1945) 30 (1947) 452 37 40 76 81 230 535 658 1130 1800
2020-08-14 00:00 8.61 846 3990 (1945) 30 (1947) 452 37 40 76 81 230 535 658 1130 1800
2020-08-13 23:00 8.61 846 4020 (1945) 30 (1947) 470 37 40 75 80 218 461 582 1210 2540
2020-08-13 22:00 8.62 848 4020 (1945) 30 (1947) 470 37 40 75 80 218 461 582 1210 2540
2020-08-13 21:00 8.61 846 4020 (1945) 30 (1947) 470 37 40 75 80 218 461 582 1210 2540
2020-08-13 20:00 8.61 846 4020 (1945) 30 (1947) 470 37 40 75 80 218 461 582 1210 2540
2020-08-13 19:00 8.62 848 4020 (1945) 30 (1947) 470 37 40 75 80 218 461 582 1210 2540
2020-08-13 18:00 8.61 846 4020 (1945) 30 (1947) 470 37 40 75 80 218 461 582 1210 2540
2020-08-13 17:00 8.61 846 4020 (1945) 30 (1947) 470 37 40 75 80 218 461 582 1210 2540
2020-08-13 16:00 8.63 851 4020 (1945) 30 (1947) 470 37 40 75 80 218 461 582 1210 2540
2020-08-13 15:00 8.63 851 4020 (1945) 30 (1947) 470 37 40 75 80 218 461 582 1210 2540
2020-08-13 14:00 8.63 851 4020 (1945) 30 (1947) 470 37 40 75 80 218 461 582 1210 2540
2020-08-13 13:00 8.64 853 4020 (1945) 30 (1947) 470 37 40 75 80 218 461 582 1210 2540
2020-08-13 12:00 8.66 857 4020 (1945) 30 (1947) 470 37 40 75 80 218 461 582 1210 2540
2020-08-13 11:00 8.66 857 4020 (1945) 30 (1947) 470 37 40 75 80 218 461 582 1210 2540
2020-08-13 10:00 8.67 859 4020 (1945) 30 (1947) 470 37 40 75 80 218 461 582 1210 2540
2020-08-13 09:00 8.68 861 4020 (1945) 30 (1947) 470 37 40 75 80 218 461 582 1210 2540
2020-08-13 08:00 8.69 863 4020 (1945) 30 (1947) 470 37 40 75 80 218 461 582 1210 2540
2020-08-13 07:00 8.69 863 4020 (1945) 30 (1947) 470 37 40 75 80 218 461 582 1210 2540
2020-08-13 06:00 8.70 865 4020 (1945) 30 (1947) 470 37 40 75 80 218 461 582 1210 2540
2020-08-13 05:00 8.71 868 4020 (1945) 30 (1947) 470 37 40 75 80 218 461 582 1210 2540
2020-08-13 04:00 8.72 870 4020 (1945) 30 (1947) 470 37 40 75 80 218 461 582 1210 2540
2020-08-13 03:00 8.72 870 4020 (1945) 30 (1947) 470 37 40 75 80 218 461 582 1210 2540
2020-08-13 02:00 8.73 872 4020 (1945) 30 (1947) 470 37 40 75 80 218 461 582 1210 2540
2020-08-13 01:00 8.72 870 4020 (1945) 30 (1947) 470 37 40 75 80 218 461 582 1210 2540
2020-08-13 00:00 8.73 872 4020 (1945) 30 (1947) 470 37 40 75 80 218 461 582 1210 2540
2020-08-12 23:00 8.74 874 4100 (1945) 0 (1982) 483 30 40 75 87 199 430 533 1290 3000
2020-08-12 22:00 8.76 878 4100 (1945) 0 (1982) 483 30 40 75 87 199 430 533 1290 3000
2020-08-12 21:00 8.78 883 4100 (1945) 0 (1982) 483 30 40 75 87 199 430 533 1290 3000
2020-08-12 20:00 8.81 889 4100 (1945) 0 (1982) 483 30 40 75 87 199 430 533 1290 3000
2020-08-12 19:00 8.83 893 4100 (1945) 0 (1982) 483 30 40 75 87 199 430 533 1290 3000
2020-08-12 18:00 8.84 896 4100 (1945) 0 (1982) 483 30 40 75 87 199 430 533 1290 3000
2020-08-12 17:00 8.87 902 4100 (1945) 0 (1982) 483 30 40 75 87 199 430 533 1290 3000
2020-08-12 16:00 8.92 913 4100 (1945) 0 (1982) 483 30 40 75 87 199 430 533 1290 3000
2020-08-12 15:00 8.99 928 4100 (1945) 0 (1982) 483 30 40 75 87 199 430 533 1290 3000
2020-08-12 14:00 9.09 950 4100 (1945) 0 (1982) 483 30 40 75 87 199 430 533 1290 3000
2020-08-12 13:00 9.17 968 4100 (1945) 0 (1982) 483 30 40 75 87 199 430 533 1290 3000
2020-08-12 12:00 9.17 968 4100 (1945) 0 (1982) 483 30 40 75 87 199 430 533 1290 3000
2020-08-12 11:00 9.18 970 4100 (1945) 0 (1982) 483 30 40 75 87 199 430 533 1290 3000
2020-08-12 10:00 9.20 975 4100 (1945) 0 (1982) 483 30 40 75 87 199 430 533 1290 3000
2020-08-12 09:00 9.20 975 4100 (1945) 0 (1982) 483 30 40 75 87 199 430 533 1290 3000
2020-08-12 08:00 9.21 977 4100 (1945) 0 (1982) 483 30 40 75 87 199 430 533 1290 3000
2020-08-12 07:00 9.22 979 4100 (1945) 0 (1982) 483 30 40 75 87 199 430 533 1290 3000
2020-08-12 06:00 9.22 979 4100 (1945) 0 (1982) 483 30 40 75 87 199 430 533 1290 3000
2020-08-12 05:00 9.23 982 4100 (1945) 0 (1982) 483 30 40 75 87 199 430 533 1290 3000
2020-08-12 04:00 9.25 986 4100 (1945) 0 (1982) 483 30 40 75 87 199 430 533 1290 3000
2020-08-12 03:00 9.26 988 4100 (1945) 0 (1982) 483 30 40 75 87 199 430 533 1290 3000
2020-08-12 02:00 9.28 993 4100 (1945) 0 (1982) 483 30 40 75 87 199 430 533 1290 3000
2020-08-12 01:00 9.29 995 4100 (1945) 0 (1982) 483 30 40 75 87 199 430 533 1290 3000
2020-08-12 00:00 9.31 1000 4100 (1945) 0 (1982) 483 30 40 75 87 199 430 533 1290 3000
2020-08-11 23:00 9.32 1000 4140 (1945) 0 (1978) 490 36 40 72 80 220 367 620 1270 2940
2020-08-11 22:00 9.35 1010 4140 (1945) 0 (1978) 490 36 40 72 80 220 367 620 1270 2940
2020-08-11 21:00 9.38 1020 4140 (1945) 0 (1978) 490 36 40 72 80 220 367 620 1270 2940
2020-08-11 20:00 9.41 1020 4140 (1945) 0 (1978) 490 36 40 72 80 220 367 620 1270 2940
2020-08-11 19:00 9.44 1030 4140 (1945) 0 (1978) 490 36 40 72 80 220 367 620 1270 2940
2020-08-11 18:00 9.48 1040 4140 (1945) 0 (1978) 490 36 40 72 80 220 367 620 1270 2940
2020-08-11 17:00 9.51 1050 4140 (1945) 0 (1978) 490 36 40 72 80 220 367 620 1270 2940
2020-08-11 16:00 9.54 1050 4140 (1945) 0 (1978) 490 36 40 72 80 220 367 620 1270 2940
2020-08-11 15:00 9.63 1070 4140 (1945) 0 (1978) 490 36 40 72 80 220 367 620 1270 2940
2020-08-11 14:00 9.69 1090 4140 (1945) 0 (1978) 490 36 40 72 80 220 367 620 1270 2940
2020-08-11 13:00 9.76 1100 4140 (1945) 0 (1978) 490 36 40 72 80 220 367 620 1270 2940
2020-08-11 12:00 9.85 1120 4140 (1945) 0 (1978) 490 36 40 72 80 220 367 620 1270 2940
2020-08-11 11:00 9.97 1150 4140 (1945) 0 (1978) 490 36 40 72 80 220 367 620 1270 2940
2020-08-11 10:00 10.13 1190 4140 (1945) 0 (1978) 490 36 40 72 80 220 367 620 1270 2940
2020-08-11 09:00 10.32 1240 4140 (1945) 0 (1978) 490 36 40 72 80 220 367 620 1270 2940
2020-08-11 08:00 10.34 1240 4140 (1945) 0 (1978) 490 36 40 72 80 220 367 620 1270 2940
2020-08-11 07:00 10.35 1240 4140 (1945) 0 (1978) 490 36 40 72 80 220 367 620 1270 2940
2020-08-11 06:00 10.37 1250 4140 (1945) 0 (1978) 490 36 40 72 80 220 367 620 1270 2940
2020-08-11 05:00 10.38 1250 4140 (1945) 0 (1978) 490 36 40 72 80 220 367 620 1270 2940
2020-08-11 04:00 10.41 1260 4140 (1945) 0 (1978) 490 36 40 72 80 220 367 620 1270 2940
2020-08-11 03:00 10.42 1260 4140 (1945) 0 (1978) 490 36 40 72 80 220 367 620 1270 2940
2020-08-11 02:00 10.45 1270 4140 (1945) 0 (1978) 490 36 40 72 80 220 367 620 1270 2940
2020-08-11 01:00 10.47 1270 4140 (1945) 0 (1978) 490 36 40 72 80 220 367 620 1270 2940
2020-08-11 00:00 10.49 1280 4140 (1945) 0 (1978) 490 36 40 72 80 220 367 620 1270 2940

A total of 79 rows are displayed for years 1942 through 2019.